Time;durP1;ratioP1;P1;durP2;ratioP2;P2;SDS_P1;SDS_P2;PMS_P1;PMS_P2;Temp;Humidity;BMP_temperature;BMP_pressure;BME280_temperature;BME280_humidity;BME280_pressure;Samples;Min_cycle;Max_cycle;Signal;HPM_P1;HPM_P2
2021/06/16 00:01:35;;;;;;;1.52;0.50;;;;;;;;;;1906095;67;20146;-68
2021/06/16 00:04:01;;;;;;;1.00;0.47;;;;;;;;;;1906140;67;20088;-69
2021/06/16 00:06:27;;;;;;;0.45;0.38;;;;;;;;;;1906380;67;20084;-69
2021/06/16 00:08:53;;;;;;;1.42;0.40;;;;;;;;;;1905854;67;20483;-67
2021/06/16 00:11:19;;;;;;;0.88;0.30;;;;;;;;;;1905819;67;20506;-66
2021/06/16 00:13:44;;;;;;;0.55;0.40;;;;;;;;;;1905480;67;20088;-69
2021/06/16 00:16:10;;;;;;;0.93;0.60;;;;;;;;;;1904794;67;20088;-66
2021/06/16 00:18:35;;;;;;;0.60;0.40;;;;;;;;;;1905229;67;20132;-66
2021/06/16 00:21:01;;;;;;;0.63;0.50;;;;;;;;;;1905319;67;20080;-68
2021/06/16 00:23:26;;;;;;;0.90;0.40;;;;;;;;;;1905598;67;20080;-67
2021/06/16 00:25:52;;;;;;;1.15;0.50;;;;;;;;;;1905263;67;20104;-68
2021/06/16 00:28:17;;;;;;;0.40;0.40;;;;;;;;;;1904925;67;20096;-68
2021/06/16 00:30:43;;;;;;;0.50;0.50;;;;;;;;;;1905478;67;20430;-68
2021/06/16 00:33:08;;;;;;;0.82;0.45;;;;;;;;;;1904349;67;20096;-66
2021/06/16 00:35:34;;;;;;;2.30;1.42;;;;;;;;;;1906420;67;20080;-66
2021/06/16 00:37:59;;;;;;;0.70;0.45;;;;;;;;;;1905897;67;20084;-66
2021/06/16 00:40:28;;;;;;;1.80;0.60;;;;;;;;;;1906959;67;20084;-68
2021/06/16 00:42:54;;;;;;;0.30;0.30;;;;;;;;;;1905852;67;20181;-67
2021/06/16 00:45:21;;;;;;;0.40;0.40;;;;;;;;;;1905487;67;20092;-68
2021/06/16 00:47:47;;;;;;;0.77;0.38;;;;;;;;;;1906102;67;20080;-67
2021/06/16 00:50:13;;;;;;;0.88;0.40;;;;;;;;;;1906586;67;20617;-66
2021/06/16 00:52:40;;;;;;;0.60;0.50;;;;;;;;;;1906001;67;20095;-64
2021/06/16 00:55:06;;;;;;;1.58;0.40;;;;;;;;;;1907339;67;20095;-65
2021/06/16 00:57:32;;;;;;;1.25;0.50;;;;;;;;;;1906045;67;20084;-67
2021/06/16 01:00:19;;;;;;;1.08;0.40;;;;;;;;;;1906715;48;20675;-68
2021/06/16 01:02:56;;;;;;;1.40;0.43;;;;;;;;;;1909247;75;20080;-67
2021/06/16 01:05:25;;;;;;;1.63;0.57;;;;;;;;;;1908985;67;20126;-66
2021/06/16 01:07:57;;;;;;;2.13;0.55;;;;;;;;;;1907472;67;20140;-68
2021/06/16 01:10:24;;;;;;;1.33;0.50;;;;;;;;;;1909156;67;20159;-68
2021/06/16 01:13:01;;;;;;;3.13;0.75;;;;;;;;;;1908052;67;20128;-67
2021/06/16 01:15:32;;;;;;;0.40;0.40;;;;;;;;;;1908049;67;20099;-68
2021/06/16 01:17:59;;;;;;;1.70;0.50;;;;;;;;;;1908046;67;20453;-68
2021/06/16 01:20:28;;;;;;;2.05;0.50;;;;;;;;;;1907367;67;20148;-67
2021/06/16 01:23:12;;;;;;;1.52;0.70;;;;;;;;;;1909050;67;20091;-68
2021/06/16 01:26:00;;;;;;;1.35;0.47;;;;;;;;;;1909512;67;20080;-67
2021/06/16 01:28:31;;;;;;;0.82;0.50;;;;;;;;;;1907912;67;20127;-66
2021/06/16 01:30:57;;;;;;;1.10;0.60;;;;;;;;;;1909318;67;20085;-66
2021/06/16 01:33:23;;;;;;;1.75;0.73;;;;;;;;;;1909776;75;20091;-66
2021/06/16 01:35:53;;;;;;;2.95;0.55;;;;;;;;;;1908741;67;21454;-66
2021/06/16 01:38:21;;;;;;;4.13;0.60;;;;;;;;;;1908940;67;20091;-67
2021/06/16 01:40:50;;;;;;;1.45;0.60;;;;;;;;;;1909047;67;20406;-67
2021/06/16 01:43:17;;;;;;;2.30;0.50;;;;;;;;;;1909871;67;20511;-66
2021/06/16 01:45:45;;;;;;;1.00;0.60;;;;;;;;;;1909101;67;20137;-67
2021/06/16 01:48:16;;;;;;;1.67;0.60;;;;;;;;;;1908726;75;20110;-68
2021/06/16 01:50:42;;;;;;;1.13;0.40;;;;;;;;;;1908630;67;20079;-68
2021/06/16 01:53:09;;;;;;;1.02;0.60;;;;;;;;;;1909075;67;20078;-66
2021/06/16 01:55:35;;;;;;;0.95;0.47;;;;;;;;;;1908937;67;20132;-65
2021/06/16 01:58:01;;;;;;;1.65;0.73;;;;;;;;;;1909991;67;20076;-67
2021/06/16 02:00:28;;;;;;;0.75;0.50;;;;;;;;;;1908423;67;20083;-66
2021/06/16 02:02:55;;;;;;;1.70;0.75;;;;;;;;;;1910521;67;20218;-66
2021/06/16 02:05:22;;;;;;;2.20;0.60;;;;;;;;;;1908891;67;20577;-65
2021/06/16 02:07:58;;;;;;;1.55;0.70;;;;;;;;;;1909122;67;20086;-65
2021/06/16 02:10:28;;;;;;;0.70;0.50;;;;;;;;;;1908847;67;20099;-67
2021/06/16 02:12:57;;;;;;;1.60;0.52;;;;;;;;;;1908771;67;20529;-67
2021/06/16 02:15:28;;;;;;;1.17;0.60;;;;;;;;;;1909405;67;20202;-65
2021/06/16 02:17:55;;;;;;;1.35;0.55;;;;;;;;;;1907902;67;20086;-67
2021/06/16 02:20:21;;;;;;;1.65;0.50;;;;;;;;;;1909447;67;20182;-66
2021/06/16 02:22:47;;;;;;;3.65;0.57;;;;;;;;;;1908857;67;20091;-66
2021/06/16 02:25:15;;;;;;;1.58;0.60;;;;;;;;;;1908260;67;20087;-66
2021/06/16 02:27:41;;;;;;;0.85;0.45;;;;;;;;;;1909311;67;20091;-65
2021/06/16 02:30:08;;;;;;;0.45;0.40;;;;;;;;;;1909307;67;20080;-65
2021/06/16 02:32:34;;;;;;;5.35;1.83;;;;;;;;;;1907701;67;20119;-65
2021/06/16 02:35:00;;;;;;;1.55;0.68;;;;;;;;;;1908613;67;20095;-66
2021/06/16 02:37:27;;;;;;;0.47;0.40;;;;;;;;;;1906016;67;20427;-67
2021/06/16 02:39:57;;;;;;;0.68;0.50;;;;;;;;;;1908999;67;20087;-68
2021/06/16 02:42:24;;;;;;;0.98;0.60;;;;;;;;;;1909211;67;20095;-67
2021/06/16 02:44:51;;;;;;;1.52;0.43;;;;;;;;;;1908577;67;20095;-67
2021/06/16 02:47:17;;;;;;;1.55;0.50;;;;;;;;;;1908228;67;20071;-66
2021/06/16 02:49:58;;;;;;;1.42;0.60;;;;;;;;;;1909705;75;20113;-66
2021/06/16 02:52:26;;;;;;;0.57;0.40;;;;;;;;;;1907801;67;20084;-67
2021/06/16 02:55:01;;;;;;;0.35;0.25;;;;;;;;;;1907824;67;20399;-67
2021/06/16 02:57:30;;;;;;;0.10;0.10;;;;;;;;;;1910448;67;20087;-66
2021/06/16 02:59:56;;;;;;;0.20;0.20;;;;;;;;;;1909131;67;20547;-68
2021/06/16 03:02:25;;;;;;;0.20;0.20;;;;;;;;;;1907647;67;20465;-65
2021/06/16 03:04:51;;;;;;;0.52;0.45;;;;;;;;;;1908795;67;20098;-66
2021/06/16 03:07:18;;;;;;;0.55;0.55;;;;;;;;;;1907942;67;20076;-67
2021/06/16 03:09:45;;;;;;;0.80;0.73;;;;;;;;;;1908251;67;20091;-66
2021/06/16 03:12:12;;;;;;;1.15;0.50;;;;;;;;;;1908633;67;20522;-66
2021/06/16 03:14:39;;;;;;;1.25;0.75;;;;;;;;;;1909274;67;20127;-64
2021/06/16 03:17:06;;;;;;;0.50;0.38;;;;;;;;;;1908788;75;20075;-65
2021/06/16 03:19:32;;;;;;;0.60;0.40;;;;;;;;;;1908623;67;20099;-65
2021/06/16 03:21:58;;;;;;;1.15;0.45;;;;;;;;;;1908608;67;20075;-64
2021/06/16 03:24:25;;;;;;;1.92;0.30;;;;;;;;;;1908613;67;20563;-66
2021/06/16 03:26:52;;;;;;;2.25;0.50;;;;;;;;;;1908501;67;20423;-64
2021/06/16 03:29:19;;;;;;;0.30;0.25;;;;;;;;;;1909194;67;20094;-63
2021/06/16 03:31:46;;;;;;;1.45;0.30;;;;;;;;;;1908288;67;20583;-64
2021/06/16 03:34:13;;;;;;;0.65;0.30;;;;;;;;;;1909326;67;20298;-63
2021/06/16 03:36:39;;;;;;;0.20;0.20;;;;;;;;;;1908783;67;20110;-63
2021/06/16 03:39:06;;;;;;;0.20;0.20;;;;;;;;;;1908503;67;20088;-64
2021/06/16 03:41:34;;;;;;;0.20;0.10;;;;;;;;;;1908931;67;20099;-62
2021/06/16 03:44:00;;;;;;;1.27;0.20;;;;;;;;;;1908914;67;20092;-65
2021/06/16 03:46:28;;;;;;;0.45;0.30;;;;;;;;;;1907052;75;20080;-63
2021/06/16 03:48:55;;;;;;;0.32;0.32;;;;;;;;;;1908965;67;20095;-64
2021/06/16 03:51:21;;;;;;;0.30;0.30;;;;;;;;;;1908563;67;20107;-64
2021/06/16 03:53:49;;;;;;;0.20;0.20;;;;;;;;;;1908863;67;20611;-64
2021/06/16 03:56:16;;;;;;;0.40;0.20;;;;;;;;;;1908482;67;20544;-64
2021/06/16 03:58:42;;;;;;;0.35;0.20;;;;;;;;;;1908974;67;20509;-64
2021/06/16 04:01:12;;;;;;;0.20;0.20;;;;;;;;;;1907666;67;20080;-62
2021/06/16 04:03:37;;;;;;;2.40;0.20;;;;;;;;;;1909021;67;20175;-63
2021/06/16 04:06:05;;;;;;;0.25;0.20;;;;;;;;;;1908790;67;20103;-63
2021/06/16 04:08:31;;;;;;;0.32;0.28;;;;;;;;;;1908760;67;20426;-64
2021/06/16 04:10:57;;;;;;;0.35;0.20;;;;;;;;;;1908549;67;20091;-63
2021/06/16 04:13:22;;;;;;;0.57;0.40;;;;;;;;;;1909027;67;20568;-64
2021/06/16 04:15:48;;;;;;;0.35;0.30;;;;;;;;;;1909600;67;20248;-64
2021/06/16 04:18:14;;;;;;;0.25;0.20;;;;;;;;;;1908993;67;20146;-63
2021/06/16 04:20:39;;;;;;;0.30;0.30;;;;;;;;;;1908960;67;20157;-65
2021/06/16 04:23:05;;;;;;;0.35;0.30;;;;;;;;;;1908705;67;20410;-64
2021/06/16 04:25:31;;;;;;;0.20;0.20;;;;;;;;;;1909190;67;20088;-63
2021/06/16 04:27:56;;;;;;;0.40;0.30;;;;;;;;;;1909048;67;20483;-64
2021/06/16 04:30:24;;;;;;;0.28;0.28;;;;;;;;;;1909129;67;20137;-64
2021/06/16 04:32:49;;;;;;;0.20;0.20;;;;;;;;;;1909835;67;20091;-65
2021/06/16 04:35:16;;;;;;;0.20;0.15;;;;;;;;;;1909188;67;20474;-64
2021/06/16 04:37:42;;;;;;;0.77;0.28;;;;;;;;;;1909358;67;20087;-63
2021/06/16 04:40:08;;;;;;;1.05;0.30;;;;;;;;;;1908674;67;20573;-64
2021/06/16 04:42:34;;;;;;;0.65;0.28;;;;;;;;;;1908803;67;20083;-63
2021/06/16 04:45:00;;;;;;;0.40;0.20;;;;;;;;;;1909460;67;20084;-63
2021/06/16 04:47:26;;;;;;;0.20;0.20;;;;;;;;;;1909536;67;20086;-64
2021/06/16 04:49:51;;;;;;;0.52;0.20;;;;;;;;;;1908947;67;20087;-65
2021/06/16 04:52:17;;;;;;;1.38;0.20;;;;;;;;;;1908978;67;20419;-65
2021/06/16 04:54:43;;;;;;;0.32;0.20;;;;;;;;;;1908476;67;20152;-58
2021/06/16 04:57:09;;;;;;;2.50;0.30;;;;;;;;;;1905897;67;20384;-57
2021/06/16 04:59:35;;;;;;;0.40;0.20;;;;;;;;;;1909108;67;20079;-57
2021/06/16 05:02:02;;;;;;;2.25;0.30;;;;;;;;;;1909298;67;20086;-57
2021/06/16 05:04:28;;;;;;;0.20;0.20;;;;;;;;;;1910063;67;20088;-57
2021/06/16 05:06:57;;;;;;;0.35;0.20;;;;;;;;;;1909457;67;20098;-57
2021/06/16 05:09:23;;;;;;;0.20;0.20;;;;;;;;;;1908783;67;20107;-57
2021/06/16 05:11:49;;;;;;;0.68;0.10;;;;;;;;;;1908940;67;20249;-57
2021/06/16 05:14:15;;;;;;;0.20;0.10;;;;;;;;;;1908296;67;20098;-57
2021/06/16 05:16:40;;;;;;;0.15;0.15;;;;;;;;;;1909015;67;20087;-57
2021/06/16 05:19:12;;;;;;;0.52;0.20;;;;;;;;;;1909315;67;20084;-59
2021/06/16 05:21:37;;;;;;;0.55;0.10;;;;;;;;;;1909335;67;20515;-58
2021/06/16 05:24:03;;;;;;;0.63;0.10;;;;;;;;;;1907802;67;20088;-64
2021/06/16 05:26:29;;;;;;;0.30;0.20;;;;;;;;;;1906489;67;20534;-65
2021/06/16 05:28:55;;;;;;;0.40;0.10;;;;;;;;;;1909748;67;20083;-63
2021/06/16 05:31:20;;;;;;;0.25;0.13;;;;;;;;;;1909243;67;20522;-64
2021/06/16 05:33:46;;;;;;;0.63;0.20;;;;;;;;;;1908268;67;20701;-63
2021/06/16 05:36:11;;;;;;;0.32;0.20;;;;;;;;;;1909022;67;20097;-64
2021/06/16 05:38:37;;;;;;;3.15;0.30;;;;;;;;;;1909288;67;20150;-64
2021/06/16 05:41:03;;;;;;;4.57;0.43;;;;;;;;;;1909121;67;20098;-64
2021/06/16 05:43:30;;;;;;;3.55;0.63;;;;;;;;;;1908593;67;20411;-62
2021/06/16 05:45:56;;;;;;;4.00;0.75;;;;;;;;;;1909194;67;20079;-62
2021/06/16 05:48:22;;;;;;;1.50;0.63;;;;;;;;;;1907702;67;20083;-62
2021/06/16 05:50:47;;;;;;;5.75;0.90;;;;;;;;;;1908575;67;20091;-63
2021/06/16 05:53:13;;;;;;;4.70;1.55;;;;;;;;;;1908591;67;20087;-63
2021/06/16 05:55:38;;;;;;;7.80;1.23;;;;;;;;;;1909079;67;20100;-63
2021/06/16 05:58:04;;;;;;;11.70;1.20;;;;;;;;;;1909953;67;20087;-62
2021/06/16 06:00:30;;;;;;;9.50;1.25;;;;;;;;;;1909042;67;20122;-60
2021/06/16 06:02:55;;;;;;;11.68;1.80;;;;;;;;;;1910076;67;20514;-62
2021/06/16 06:05:21;;;;;;;13.23;1.95;;;;;;;;;;1908133;67;20455;-61
2021/06/16 06:07:47;;;;;;;14.18;2.58;;;;;;;;;;1908691;67;20083;-63
2021/06/16 06:10:12;;;;;;;20.50;2.63;;;;;;;;;;1908429;67;20384;-63
2021/06/16 06:12:38;;;;;;;19.70;2.80;;;;;;;;;;1908324;67;20146;-63
2021/06/16 06:15:05;;;;;;;16.55;1.90;;;;;;;;;;1908599;67;20091;-64
2021/06/16 06:17:31;;;;;;;15.60;2.47;;;;;;;;;;1908090;67;20152;-64
2021/06/16 06:19:56;;;;;;;12.85;1.90;;;;;;;;;;1908451;67;20515;-63
2021/06/16 06:22:22;;;;;;;16.92;2.75;;;;;;;;;;1908296;67;20362;-63
2021/06/16 06:24:47;;;;;;;16.33;2.90;;;;;;;;;;1909039;67;20391;-65
2021/06/16 06:27:13;;;;;;;11.07;1.80;;;;;;;;;;1908307;67;20096;-64
2021/06/16 06:29:39;;;;;;;11.75;2.10;;;;;;;;;;1908762;67;20152;-64
2021/06/16 06:32:05;;;;;;;13.30;2.53;;;;;;;;;;1907828;67;20102;-65
2021/06/16 06:34:30;;;;;;;6.82;1.65;;;;;;;;;;1909010;67;20186;-64
2021/06/16 06:36:56;;;;;;;11.57;1.73;;;;;;;;;;1908278;67;20834;-64
2021/06/16 06:39:22;;;;;;;10.05;3.10;;;;;;;;;;1908526;67;20106;-65
2021/06/16 06:41:47;;;;;;;12.82;2.13;;;;;;;;;;1908723;67;20551;-64
2021/06/16 06:44:13;;;;;;;14.70;1.77;;;;;;;;;;1908895;67;20107;-65
2021/06/16 06:46:38;;;;;;;17.80;2.63;;;;;;;;;;1909017;67;20400;-65
2021/06/16 06:49:04;;;;;;;12.82;1.90;;;;;;;;;;1909976;67;20090;-65
2021/06/16 06:51:29;;;;;;;14.45;2.10;;;;;;;;;;1908189;67;20139;-66
2021/06/16 06:53:55;;;;;;;7.47;1.67;;;;;;;;;;1908592;67;20076;-64
2021/06/16 06:56:20;;;;;;;13.68;2.28;;;;;;;;;;1908485;67;20094;-64
2021/06/16 06:58:46;;;;;;;11.13;1.65;;;;;;;;;;1908901;67;20094;-64
2021/06/16 07:01:11;;;;;;;13.02;2.08;;;;;;;;;;1908295;67;20376;-66
2021/06/16 07:03:37;;;;;;;10.95;2.20;;;;;;;;;;1909009;67;20114;-65
2021/06/16 07:06:02;;;;;;;13.32;2.22;;;;;;;;;;1909451;67;20092;-65
2021/06/16 07:08:28;;;;;;;12.15;2.30;;;;;;;;;;1908607;67;20084;-66
2021/06/16 07:10:53;;;;;;;14.25;2.80;;;;;;;;;;1908515;67;20450;-66
2021/06/16 07:13:19;;;;;;;11.57;1.75;;;;;;;;;;1908203;67;20457;-65
2021/06/16 07:15:44;;;;;;;14.63;2.25;;;;;;;;;;1907053;67;20083;-65
2021/06/16 07:18:10;;;;;;;12.38;2.00;;;;;;;;;;1909260;67;20106;-66
2021/06/16 07:20:36;;;;;;;15.48;1.92;;;;;;;;;;1908751;67;20091;-65
2021/06/16 07:23:01;;;;;;;18.15;3.35;;;;;;;;;;1908436;67;20083;-66
2021/06/16 07:25:27;;;;;;;16.15;2.05;;;;;;;;;;1909014;67;20084;-66
2021/06/16 07:27:53;;;;;;;12.27;2.15;;;;;;;;;;1909130;67;20079;-66
2021/06/16 07:30:19;;;;;;;15.93;1.92;;;;;;;;;;1908346;67;20604;-66
2021/06/16 07:32:45;;;;;;;17.80;2.00;;;;;;;;;;1908562;67;20172;-70
2021/06/16 07:35:12;;;;;;;9.80;1.70;;;;;;;;;;1909130;67;20088;-69
2021/06/16 07:37:38;;;;;;;11.88;1.73;;;;;;;;;;1909235;67;20099;-67
2021/06/16 07:40:08;;;;;;;11.85;1.73;;;;;;;;;;1910388;67;20083;-68
2021/06/16 07:42:33;;;;;;;9.38;1.83;;;;;;;;;;1908437;67;20099;-68
2021/06/16 07:44:59;;;;;;;10.60;2.10;;;;;;;;;;1907245;67;20090;-68
2021/06/16 07:47:24;;;;;;;15.98;2.90;;;;;;;;;;1907948;75;20079;-67
2021/06/16 07:49:51;;;;;;;9.80;1.35;;;;;;;;;;1908068;67;20090;-68
2021/06/16 07:52:17;;;;;;;5.35;1.15;;;;;;;;;;1908947;67;20395;-66
2021/06/16 07:54:42;;;;;;;9.98;1.60;;;;;;;;;;1909263;67;20088;-66
2021/06/16 07:57:08;;;;;;;7.45;1.65;;;;;;;;;;1909135;67;20091;-66
2021/06/16 07:59:33;;;;;;;22.02;2.33;;;;;;;;;;1908966;67;20172;-68
2021/06/16 08:01:59;;;;;;;20.40;1.90;;;;;;;;;;1909925;67;20152;-68
2021/06/16 08:04:25;;;;;;;7.82;1.30;;;;;;;;;;1908639;67;20149;-68
2021/06/16 08:06:51;;;;;;;7.38;1.27;;;;;;;;;;1909065;67;20083;-68
2021/06/16 08:09:18;;;;;;;11.48;2.53;;;;;;;;;;1908947;67;20371;-67
2021/06/16 08:11:43;;;;;;;12.73;1.75;;;;;;;;;;1907875;67;20087;-66
2021/06/16 08:14:09;;;;;;;11.57;1.35;;;;;;;;;;1908602;67;20217;-68
2021/06/16 08:16:35;;;;;;;14.73;1.70;;;;;;;;;;1908556;75;20094;-67
2021/06/16 08:19:00;;;;;;;9.18;1.00;;;;;;;;;;1908948;67;20092;-67
2021/06/16 08:21:26;;;;;;;14.20;1.65;;;;;;;;;;1908339;67;20084;-68
2021/06/16 08:23:52;;;;;;;9.05;1.40;;;;;;;;;;1907056;67;20495;-68
2021/06/16 08:26:17;;;;;;;12.00;1.83;;;;;;;;;;1908343;67;20080;-68
2021/06/16 08:28:43;;;;;;;19.10;1.63;;;;;;;;;;1908468;67;20081;-68
2021/06/16 08:31:09;;;;;;;13.23;1.77;;;;;;;;;;1910463;67;20148;-68
2021/06/16 08:33:37;;;;;;;9.10;1.38;;;;;;;;;;1908664;67;20084;-68
2021/06/16 08:36:04;;;;;;;12.35;1.70;;;;;;;;;;1908625;67;20084;-67
2021/06/16 08:38:30;;;;;;;11.63;2.47;;;;;;;;;;1907596;67;20100;-68
2021/06/16 08:41:00;;;;;;;8.52;1.67;;;;;;;;;;1909467;67;20507;-67
2021/06/16 08:43:25;;;;;;;7.88;1.77;;;;;;;;;;1908483;67;20576;-68
2021/06/16 08:45:55;;;;;;;10.38;1.17;;;;;;;;;;1908036;67;20083;-68
2021/06/16 08:48:20;;;;;;;10.52;1.73;;;;;;;;;;1908203;67;20084;-68
2021/06/16 08:50:46;;;;;;;10.15;1.60;;;;;;;;;;1907717;67;20147;-68
2021/06/16 08:53:11;;;;;;;12.15;1.77;;;;;;;;;;1908002;67;20083;-68
2021/06/16 08:55:37;;;;;;;16.52;2.05;;;;;;;;;;1907978;67;20138;-66
2021/06/16 08:58:02;;;;;;;8.40;1.58;;;;;;;;;;1906800;67;20094;-68
2021/06/16 09:00:28;;;;;;;15.38;1.95;;;;;;;;;;1908200;67;20084;-68
2021/06/16 09:02:54;;;;;;;8.15;1.52;;;;;;;;;;1907607;67;20350;-68
2021/06/16 09:05:33;;;;;;;9.27;1.65;;;;;;;;;;1909301;67;20087;-68
2021/06/16 09:07:59;;;;;;;16.10;2.63;;;;;;;;;;1909208;67;20084;-68
2021/06/16 09:10:25;;;;;;;7.63;1.45;;;;;;;;;;1909309;67;20513;-68
2021/06/16 09:12:57;;;;;;;14.73;1.73;;;;;;;;;;1906632;67;20087;-68
2021/06/16 09:15:28;;;;;;;11.82;2.03;;;;;;;;;;1907803;67;20088;-68
2021/06/16 09:18:04;;;;;;;11.77;1.70;;;;;;;;;;1910817;67;20643;-67
2021/06/16 09:20:32;;;;;;;11.27;1.65;;;;;;;;;;1908665;67;20143;-68
2021/06/16 09:23:13;;;;;;;12.55;2.00;;;;;;;;;;1908905;67;20088;-67
2021/06/16 09:25:40;;;;;;;15.43;1.73;;;;;;;;;;1908844;67;20091;-68
2021/06/16 09:28:06;;;;;;;8.23;1.52;;;;;;;;;;1908409;67;20503;-70
2021/06/16 09:30:35;;;;;;;13.85;2.53;;;;;;;;;;1908400;67;20076;-67
2021/06/16 09:33:10;;;;;;;8.07;1.25;;;;;;;;;;1908988;67;20110;-67
2021/06/16 09:35:40;;;;;;;11.95;1.60;;;;;;;;;;1909582;67;20172;-68
2021/06/16 09:38:12;;;;;;;8.13;1.52;;;;;;;;;;1909974;67;20094;-67
2021/06/16 09:40:42;;;;;;;7.40;1.67;;;;;;;;;;1908495;67;20087;-69
2021/06/16 09:43:13;;;;;;;11.98;1.60;;;;;;;;;;1909199;67;20094;-69
2021/06/16 09:45:40;;;;;;;9.53;1.87;;;;;;;;;;1908917;67;20438;-68
2021/06/16 09:48:31;;;;;;;8.52;2.00;;;;;;;;;;1909412;67;20141;-68
2021/06/16 09:51:28;;;;;;;8.95;1.60;;;;;;;;;;1908665;67;20095;-68
2021/06/16 09:54:13;;;;;;;11.82;1.75;;;;;;;;;;1908457;67;20123;-67
2021/06/16 09:56:54;;;;;;;15.27;2.10;;;;;;;;;;1907711;67;20459;-67
2021/06/16 09:59:36;;;;;;;9.13;1.42;;;;;;;;;;1908034;67;20080;-69
2021/06/16 10:02:01;;;;;;;11.88;2.85;;;;;;;;;;1908040;67;20147;-68
2021/06/16 10:04:55;;;;;;;11.25;2.08;;;;;;;;;;1909801;67;20140;-68
2021/06/16 10:07:28;;;;;;;9.88;1.48;;;;;;;;;;1908594;67;20304;-67
2021/06/16 10:09:57;;;;;;;7.70;1.40;;;;;;;;;;1908264;67;20090;-68
2021/06/16 10:12:35;;;;;;;9.25;1.83;;;;;;;;;;1909821;67;20401;-67
2021/06/16 10:15:04;;;;;;;10.73;1.45;;;;;;;;;;1908942;67;20636;-68
2021/06/16 10:17:30;;;;;;;9.15;1.50;;;;;;;;;;1909574;67;20096;-67
2021/06/16 10:19:56;;;;;;;7.95;1.70;;;;;;;;;;1908488;67;20075;-67
2021/06/16 10:22:22;;;;;;;6.82;1.77;;;;;;;;;;1908220;75;20409;-67
2021/06/16 10:24:48;;;;;;;8.15;1.70;;;;;;;;;;1908526;59;20709;-68
2021/06/16 10:27:27;;;;;;;7.95;1.42;;;;;;;;;;1909535;67;20696;-68
2021/06/16 10:29:55;;;;;;;16.60;2.03;;;;;;;;;;1907936;67;20409;-67
2021/06/16 10:32:21;;;;;;;13.95;1.67;;;;;;;;;;1908714;67;20079;-67
2021/06/16 10:34:53;;;;;;;6.38;1.23;;;;;;;;;;1909522;67;20217;-67
2021/06/16 10:37:27;;;;;;;11.60;1.92;;;;;;;;;;1909115;67;20096;-67
2021/06/16 10:40:21;;;;;;;9.52;1.27;;;;;;;;;;1908076;67;20099;-67
2021/06/16 10:43:02;;;;;;;8.48;1.50;;;;;;;;;;1909616;67;20083;-67
2021/06/16 10:45:29;;;;;;;10.50;1.70;;;;;;;;;;1908987;67;20165;-68
2021/06/16 10:47:56;;;;;;;7.45;1.40;;;;;;;;;;1908382;67;20090;-68
2021/06/16 10:50:45;;;;;;;5.63;1.13;;;;;;;;;;1909380;67;20329;-68
2021/06/16 10:53:11;;;;;;;8.45;1.25;;;;;;;;;;1908860;67;20080;-70
2021/06/16 10:56:09;;;;;;;9.52;1.45;;;;;;;;;;1908652;67;20091;-70
2021/06/16 10:58:45;;;;;;;5.00;1.20;;;;;;;;;;1905592;75;20139;-69
2021/06/16 11:01:18;;;;;;;8.68;1.60;;;;;;;;;;1908543;67;20665;-70
2021/06/16 11:03:50;;;;;;;10.70;1.38;;;;;;;;;;1910070;67;20100;-70
2021/06/16 11:06:37;;;;;;;16.15;1.63;;;;;;;;;;1908654;67;20185;-70
2021/06/16 11:09:06;;;;;;;6.60;1.40;;;;;;;;;;1908320;67;20410;-71
2021/06/16 11:12:03;;;;;;;12.38;1.58;;;;;;;;;;1909271;67;20958;-70
2021/06/16 11:14:39;;;;;;;9.90;2.00;;;;;;;;;;1909736;67;20298;-70
2021/06/16 11:17:31;;;;;;;12.80;1.50;;;;;;;;;;1908711;67;20092;-69
2021/06/16 11:19:58;;;;;;;8.40;1.35;;;;;;;;;;1908820;67;20458;-69
2021/06/16 11:22:28;;;;;;;11.20;1.40;;;;;;;;;;1907465;67;20171;-70
2021/06/16 11:25:18;;;;;;;10.90;1.45;;;;;;;;;;1908687;67;20098;-70
2021/06/16 11:28:10;;;;;;;8.48;1.33;;;;;;;;;;1907647;67;20088;-70
2021/06/16 11:30:54;;;;;;;7.45;1.55;;;;;;;;;;1909411;67;20095;-70
2021/06/16 11:33:20;;;;;;;17.77;1.83;;;;;;;;;;1908288;67;20084;-70
2021/06/16 11:35:49;;;;;;;12.90;2.00;;;;;;;;;;1908891;67;20559;-71
2021/06/16 11:38:17;;;;;;;9.50;1.35;;;;;;;;;;1908564;67;20084;-69
2021/06/16 11:41:11;;;;;;;6.43;1.60;;;;;;;;;;1908127;67;20096;-70
2021/06/16 11:43:47;;;;;;;7.65;1.60;;;;;;;;;;1908585;67;20098;-71
2021/06/16 11:46:27;;;;;;;13.60;1.58;;;;;;;;;;1907889;67;20156;-70
2021/06/16 11:49:15;;;;;;;8.50;1.60;;;;;;;;;;1908312;67;20397;-69
2021/06/16 11:51:45;;;;;;;9.25;1.40;;;;;;;;;;1909328;67;20092;-71
2021/06/16 11:54:26;;;;;;;6.78;1.42;;;;;;;;;;1908196;67;20088;-69
2021/06/16 11:57:02;;;;;;;5.88;1.67;;;;;;;;;;1908100;67;20423;-69
2021/06/16 11:59:43;;;;;;;8.35;1.15;;;;;;;;;;1907391;67;20080;-71
2021/06/16 12:02:23;;;;;;;7.82;1.90;;;;;;;;;;1908538;67;20107;-71
2021/06/16 12:04:59;;;;;;;11.73;1.65;;;;;;;;;;1909036;67;20080;-70
2021/06/16 12:07:37;;;;;;;8.43;2.40;;;;;;;;;;1907806;67;20511;-69
2021/06/16 12:10:10;;;;;;;10.75;1.60;;;;;;;;;;1908366;67;20091;-70
2021/06/16 12:12:51;;;;;;;7.43;1.73;;;;;;;;;;1908601;67;20092;-71
2021/06/16 12:15:19;;;;;;;8.57;1.30;;;;;;;;;;1908568;67;20474;-69
2021/06/16 12:18:16;;;;;;;9.23;1.40;;;;;;;;;;1907821;67;20146;-69
2021/06/16 12:20:50;;;;;;;8.75;1.20;;;;;;;;;;1907116;67;20088;-70
2021/06/16 12:23:22;;;;;;;6.28;1.33;;;;;;;;;;1908994;67;20102;-58
2021/06/16 12:25:48;;;;;;;;;;;;;;;;;;1908722;67;20086;-57
2021/06/16 12:28:15;;;;;;;8.20;2.17;;;;;;;;;;1908199;67;19963;-57
2021/06/16 12:30:41;;;;;;;12.60;2.05;;;;;;;;;;1909096;67;20099;-57
2021/06/16 12:35:56;;;;;;;8.18;1.92;;;;;;;;;;1908940;67;20529;-56
2021/06/16 12:38:40;;;;;;;12.57;1.40;;;;;;;;;;1908353;67;20523;-57
2021/06/16 12:41:28;;;;;;;7.70;1.63;;;;;;;;;;1908321;67;20091;-57
2021/06/16 12:44:12;;;;;;;10.07;1.98;;;;;;;;;;1909099;67;20090;-57
2021/06/16 12:46:49;;;;;;;11.13;1.40;;;;;;;;;;1908873;67;20387;-57
2021/06/16 12:49:16;;;;;;;9.40;1.95;;;;;;;;;;1908109;67;20526;-57
2021/06/16 12:51:53;;;;;;;8.25;1.58;;;;;;;;;;1908243;67;20079;-57
2021/06/16 12:54:34;;;;;;;12.00;1.70;;;;;;;;;;1908548;67;20143;-69
2021/06/16 12:56:59;;;;;;;12.27;2.13;;;;;;;;;;1908131;67;20194;-70
2021/06/16 12:59:53;;;;;;;12.00;2.05;;;;;;;;;;1910051;67;20135;-69
2021/06/16 13:02:29;;;;;;;9.50;1.90;;;;;;;;;;1908364;67;20084;-69
2021/06/16 13:05:00;;;;;;;14.02;2.13;;;;;;;;;;1909464;67;20084;-70
2021/06/16 13:07:49;;;;;;;9.88;2.13;;;;;;;;;;1909933;67;20086;-70
2021/06/16 13:10:24;;;;;;;13.32;2.03;;;;;;;;;;1908895;67;20080;-68
2021/06/16 13:12:52;;;;;;;8.82;2.20;;;;;;;;;;1909429;67;20106;-68
2021/06/16 13:15:17;;;;;;;11.95;1.58;;;;;;;;;;1908646;67;20098;-68
2021/06/16 13:17:49;;;;;;;9.40;1.45;;;;;;;;;;1909480;67;20311;-68
2021/06/16 13:20:33;;;;;;;11.48;1.80;;;;;;;;;;1911798;67;20079;-69
2021/06/16 13:23:11;;;;;;;14.18;1.98;;;;;;;;;;1909092;67;20143;-69
2021/06/16 13:25:40;;;;;;;12.82;2.40;;;;;;;;;;1907883;67;20079;-69
2021/06/16 13:28:06;;;;;;;13.35;2.50;;;;;;;;;;1909138;75;20479;-69
2021/06/16 13:30:41;;;;;;;10.40;1.90;;;;;;;;;;1909179;67;20127;-68
2021/06/16 13:33:11;;;;;;;9.95;1.83;;;;;;;;;;1910399;67;20251;-69
2021/06/16 13:35:36;;;;;;;12.95;1.80;;;;;;;;;;1909285;75;20281;-68
2021/06/16 13:38:02;;;;;;;6.85;1.58;;;;;;;;;;1909558;67;20648;-69
2021/06/16 13:40:28;;;;;;;12.00;1.90;;;;;;;;;;1908868;67;20099;-70
2021/06/16 13:42:56;;;;;;;7.30;1.65;;;;;;;;;;1908388;67;20095;-69
2021/06/16 13:45:25;;;;;;;10.68;1.35;;;;;;;;;;1909027;75;20079;-69
2021/06/16 13:47:51;;;;;;;11.82;2.78;;;;;;;;;;1908663;67;20099;-69
2021/06/16 13:50:16;;;;;;;15.73;2.88;;;;;;;;;;1909281;67;20090;-69
2021/06/16 13:52:43;;;;;;;15.55;2.22;;;;;;;;;;1908922;67;20136;-68
2021/06/16 13:55:09;;;;;;;13.98;2.00;;;;;;;;;;1909196;67;20134;-69
2021/06/16 13:57:35;;;;;;;8.60;1.73;;;;;;;;;;1908665;67;20102;-70
2021/06/16 14:00:01;;;;;;;11.13;1.52;;;;;;;;;;1908373;67;20080;-70
2021/06/16 14:02:29;;;;;;;14.52;1.65;;;;;;;;;;1908307;67;20095;-58
2021/06/16 14:04:55;;;;;;;11.57;1.83;;;;;;;;;;1909646;67;20084;-59
2021/06/16 14:07:21;;;;;;;6.43;1.55;;;;;;;;;;1909407;67;20621;-58
2021/06/16 14:09:46;;;;;;;13.00;1.88;;;;;;;;;;1908643;67;20083;-58
2021/06/16 14:12:13;;;;;;;10.63;1.75;;;;;;;;;;1908896;67;20290;-59
2021/06/16 14:14:39;;;;;;;8.85;1.48;;;;;;;;;;1908232;67;20747;-60
2021/06/16 14:17:04;;;;;;;9.73;1.60;;;;;;;;;;1908298;67;20500;-58
2021/06/16 14:19:30;;;;;;;10.95;1.83;;;;;;;;;;1909246;67;20090;-59
2021/06/16 14:21:55;;;;;;;8.70;1.77;;;;;;;;;;1909083;67;20103;-60
2021/06/16 14:24:21;;;;;;;6.72;1.58;;;;;;;;;;1908416;67;20091;-58
2021/06/16 14:26:46;;;;;;;8.15;1.58;;;;;;;;;;1908770;67;20503;-58
2021/06/16 14:29:12;;;;;;;9.70;1.67;;;;;;;;;;1909446;67;20088;-59
2021/06/16 14:31:38;;;;;;;3.72;1.20;;;;;;;;;;1908393;67;20350;-59
2021/06/16 14:34:04;;;;;;;8.93;1.48;;;;;;;;;;1909767;67;20188;-70
2021/06/16 14:36:30;;;;;;;13.45;2.03;;;;;;;;;;1909316;67;20139;-69
2021/06/16 14:38:56;;;;;;;8.25;1.30;;;;;;;;;;1908461;67;20582;-68
2021/06/16 14:41:21;;;;;;;10.27;1.55;;;;;;;;;;1908487;67;20530;-69
2021/06/16 14:43:47;;;;;;;12.45;1.58;;;;;;;;;;1908792;67;20091;-70
2021/06/16 14:46:13;;;;;;;11.75;2.33;;;;;;;;;;1908905;67;20172;-70
2021/06/16 14:48:38;;;;;;;9.80;1.67;;;;;;;;;;1908373;67;20363;-67
2021/06/16 14:51:04;;;;;;;8.02;1.50;;;;;;;;;;1909321;67;20084;-69
2021/06/16 14:53:30;;;;;;;14.30;2.58;;;;;;;;;;1908061;75;20084;-69